Time;durP1;ratioP1;P1;durP2;ratioP2;P2;SDS_P1;SDS_P2;PMS_P1;PMS_P2;Temp;Humidity;BMP_temperature;BMP_pressure;BME280_temperature;BME280_humidity;BME280_pressure;Samples;Min_cycle;Max_cycle;Signal;HPM_P1;HPM_P2
2022/10/14 04:30:59;;;;;;;;;3.00;3.00;;;;;;;;5734646;22;46235;-69
2022/10/14 04:33:25;;;;;;;;;4.00;2.00;;;;;;;;5051988;28;45375;-69
2022/10/14 04:35:55;;;;;;;;;2.33;2.33;;;;;;;;5039056;28;45426;-70
2022/10/14 04:38:20;;;;;;;;;3.00;3.00;;;;;;;;5033994;28;45416;-70
2022/10/14 04:40:45;;;;;;;;;5.33;4.00;;;;;;;;5042912;28;45507;-69
2022/10/14 04:43:11;;;;;;;;;3.00;3.00;;;;;;;;5051452;28;45340;-70
2022/10/14 04:45:36;;;;;;;;;2.00;2.00;;;;;;;;5046896;28;45733;-70
2022/10/14 04:48:01;;;;;;;;;3.33;2.00;;;;;;;;5040196;28;45467;-69
2022/10/14 04:50:26;;;;;;;;;4.00;4.00;;;;;;;;5042979;28;46333;-69
2022/10/14 04:52:52;;;;;;;;;2.00;2.00;;;;;;;;5049348;28;45300;-69
2022/10/14 04:55:17;;;;;;;;;3.00;3.00;;;;;;;;5041273;28;45502;-69
2022/10/14 04:57:43;;;;;;;;;2.00;2.00;;;;;;;;5049739;28;45541;-69
2022/10/14 05:00:09;;;;;;;;;2.33;2.33;;;;;;;;5045276;28;45685;-69
2022/10/14 05:02:35;;;;;;;;;2.33;2.33;;;;;;;;5050643;28;45494;-69
2022/10/14 05:05:00;;;;;;;;;1.67;1.67;;;;;;;;5043515;28;45587;-70
2022/10/14 05:07:25;;;;;;;;;2.00;2.00;;;;;;;;5046613;28;45516;-70
2022/10/14 05:09:50;;;;;;;;;4.00;2.00;;;;;;;;5046159;28;46299;-70
2022/10/14 05:12:16;;;;;;;;;3.00;3.00;;;;;;;;5048883;28;45629;-70
2022/10/14 05:14:41;;;;;;;;;2.67;2.67;;;;;;;;5045841;28;45489;-70
2022/10/14 05:17:06;;;;;;;;;3.33;3.33;;;;;;;;5052099;28;45330;-69
2022/10/14 05:19:31;;;;;;;;;3.00;3.00;;;;;;;;5050358;28;46165;-69
2022/10/14 05:21:57;;;;;;;;;3.33;3.33;;;;;;;;5047990;28;45508;-70
2022/10/14 05:24:22;;;;;;;;;2.67;2.67;;;;;;;;5052806;28;45469;-69
2022/10/14 05:26:47;;;;;;;;;4.00;4.00;;;;;;;;5051546;28;45537;-69
2022/10/14 05:29:13;;;;;;;;;2.00;2.00;;;;;;;;5052795;28;46132;-69
2022/10/14 05:31:38;;;;;;;;;4.00;4.00;;;;;;;;5045487;28;45737;-69
2022/10/14 05:34:04;;;;;;;;;3.00;3.00;;;;;;;;5044550;28;45696;-69
2022/10/14 05:36:29;;;;;;;;;3.33;3.33;;;;;;;;5040449;28;45346;-68
2022/10/14 05:38:57;;;;;;;;;2.33;2.00;;;;;;;;5042882;28;45359;-69
2022/10/14 05:41:22;;;;;;;;;4.00;4.00;;;;;;;;5041921;28;45620;-66
2022/10/14 05:43:47;;;;;;;;;3.00;3.00;;;;;;;;5045834;28;45293;-68
2022/10/14 05:46:12;;;;;;;;;3.00;3.00;;;;;;;;5040649;28;45501;-68
2022/10/14 05:48:38;;;;;;;;;4.00;4.00;;;;;;;;5042233;28;46381;-68
2022/10/14 05:51:03;;;;;;;;;3.67;3.67;;;;;;;;5040571;28;45324;-68
2022/10/14 05:53:29;;;;;;;;;4.00;4.00;;;;;;;;5040181;28;45176;-69
2022/10/14 05:56:04;;;;;;;;;6.00;5.00;;;;;;;;5039399;28;45351;-70
2022/10/14 05:58:30;;;;;;;;;4.33;4.33;;;;;;;;5046040;28;46331;-67
2022/10/14 06:00:58;;;;;;;;;3.33;3.33;;;;;;;;5046760;28;45665;-69
2022/10/14 06:03:23;;;;;;;;;5.00;5.00;;;;;;;;5040520;28;45410;-68
2022/10/14 06:05:48;;;;;;;;;4.33;3.33;;;;;;;;5037796;28;45389;-68
2022/10/14 06:08:14;;;;;;;;;4.00;4.00;;;;;;;;5041344;28;45984;-68
2022/10/14 06:10:39;;;;;;;;;5.00;5.00;;;;;;;;5046519;28;45395;-68
2022/10/14 06:13:05;;;;;;;;;4.00;4.00;;;;;;;;5042023;28;45343;-68
2022/10/14 06:15:30;;;;;;;;;4.00;3.00;;;;;;;;5053618;28;45330;-69
2022/10/14 06:17:55;;;;;;;;;3.67;3.67;;;;;;;;5049742;28;45304;-69
2022/10/14 06:20:20;;;;;;;;;5.00;4.00;;;;;;;;5047178;28;45751;-69
2022/10/14 06:22:45;;;;;;;;;3.67;3.67;;;;;;;;5052641;28;45386;-68
2022/10/14 06:25:12;;;;;;;;;4.00;4.00;;;;;;;;5044629;28;45702;-68
2022/10/14 06:27:37;;;;;;;;;4.67;4.00;;;;;;;;5042330;28;45436;-69
2022/10/14 06:30:02;;;;;;;;;2.00;2.00;;;;;;;;5041563;28;45364;-69
2022/10/14 06:32:28;;;;;;;;;3.67;3.67;;;;;;;;5048953;28;45401;-65
2022/10/14 06:34:53;;;;;;;;;6.33;4.00;;;;;;;;5050107;28;45504;-65
2022/10/14 06:37:18;;;;;;;;;4.67;4.67;;;;;;;;5033645;28;45892;-64
2022/10/14 06:39:43;;;;;;;;;5.00;4.00;;;;;;;;5050477;28;45507;-64
2022/10/14 06:42:09;;;;;;;;;5.00;4.00;;;;;;;;5052836;28;45375;-64
2022/10/14 06:44:34;;;;;;;;;5.33;4.00;;;;;;;;5049657;28;45713;-65
2022/10/14 06:46:59;;;;;;;;;4.33;4.33;;;;;;;;5054282;28;46124;-65
2022/10/14 06:49:24;;;;;;;;;5.67;5.67;;;;;;;;5056732;28;45387;-66
2022/10/14 06:51:50;;;;;;;;;6.00;6.00;;;;;;;;5047248;28;45594;-65
2022/10/14 06:54:15;;;;;;;;;3.67;3.67;;;;;;;;5046659;28;45237;-64
2022/10/14 06:56:41;;;;;;;;;6.67;5.00;;;;;;;;5060332;28;45382;-65
2022/10/14 06:59:06;;;;;;;;;6.67;5.67;;;;;;;;5058080;28;45456;-66
2022/10/14 07:01:31;;;;;;;;;6.00;5.67;;;;;;;;5045109;28;45812;-65
2022/10/14 07:03:56;;;;;;;;;6.00;5.33;;;;;;;;5055865;28;46324;-65
2022/10/14 07:06:21;;;;;;;;;5.33;5.00;;;;;;;;5049932;28;45480;-65
2022/10/14 07:08:47;;;;;;;;;7.33;5.00;;;;;;;;5053490;28;45346;-65
2022/10/14 07:11:12;;;;;;;;;4.00;4.00;;;;;;;;5053309;28;45553;-65
2022/10/14 07:13:38;;;;;;;;;4.00;4.00;;;;;;;;5051267;28;45674;-66
2022/10/14 07:16:04;;;;;;;;;7.00;4.00;;;;;;;;5046617;28;46354;-66
2022/10/14 07:18:29;;;;;;;;;3.67;3.67;;;;;;;;5051308;28;45473;-66
2022/10/14 07:20:55;;;;;;;;;5.00;5.00;;;;;;;;5059160;28;45385;-66
2022/10/14 07:23:20;;;;;;;;;5.00;4.00;;;;;;;;5051173;28;45658;-65
2022/10/14 07:25:45;;;;;;;;;4.33;3.00;;;;;;;;5046413;28;45493;-65
2022/10/14 07:28:10;;;;;;;;;4.00;4.00;;;;;;;;5052128;28;45383;-66
2022/10/14 07:30:36;;;;;;;;;7.00;6.00;;;;;;;;5049149;28;45381;-65
2022/10/14 07:33:01;;;;;;;;;4.33;4.33;;;;;;;;5052339;28;45333;-66
2022/10/14 07:35:26;;;;;;;;;4.00;4.00;;;;;;;;5043025;28;46925;-67
2022/10/14 07:37:52;;;;;;;;;3.00;3.00;;;;;;;;5048693;28;45336;-67
2022/10/14 07:40:18;;;;;;;;;4.00;2.33;;;;;;;;5046719;28;45692;-66
2022/10/14 07:42:43;;;;;;;;;2.33;2.33;;;;;;;;5048092;28;46817;-65
2022/10/14 07:45:09;;;;;;;;;5.00;3.00;;;;;;;;5050645;28;45867;-65
2022/10/14 07:47:34;;;;;;;;;5.00;2.67;;;;;;;;5051489;28;45429;-65
2022/10/14 07:50:00;;;;;;;;;5.00;4.00;;;;;;;;5047951;28;45447;-66
2022/10/14 07:52:26;;;;;;;;;4.00;2.00;;;;;;;;5054166;28;45491;-65
2022/10/14 07:54:51;;;;;;;;;4.00;4.00;;;;;;;;5046242;28;46900;-66
2022/10/14 07:57:16;;;;;;;;;4.67;2.33;;;;;;;;5034437;28;45340;-65
2022/10/14 07:59:41;;;;;;;;;2.00;2.00;;;;;;;;5056081;28;45366;-65
2022/10/14 08:02:07;;;;;;;;;3.67;2.00;;;;;;;;5057042;28;45493;-65
2022/10/14 08:04:33;;;;;;;;;5.33;4.67;;;;;;;;5051809;28;46457;-65
2022/10/14 08:07:00;;;;;;;;;2.00;2.00;;;;;;;;5052126;28;45473;-64
2022/10/14 08:09:25;;;;;;;;;3.33;2.00;;;;;;;;5048243;28;45541;-66
2022/10/14 08:11:50;;;;;;;;;3.00;3.00;;;;;;;;5052803;28;45511;-66
2022/10/14 08:14:15;;;;;;;;;2.00;2.00;;;;;;;;5054277;28;45613;-66
2022/10/14 08:16:40;;;;;;;;;1.33;1.33;;;;;;;;5050115;28;45529;-67
2022/10/14 08:19:07;;;;;;;;;2.67;2.33;;;;;;;;5047718;28;45518;-65
2022/10/14 08:21:32;;;;;;;;;2.33;1.67;;;;;;;;5049008;28;45351;-65
2022/10/14 08:23:58;;;;;;;;;2.00;2.00;;;;;;;;5057050;28;46437;-66
2022/10/14 08:26:36;;;;;;;;;2.33;2.33;;;;;;;;5039706;28;45420;-65
2022/10/14 08:29:03;;;;;;;;;6.00;3.00;;;;;;;;5052508;28;45515;-65
2022/10/14 08:31:29;;;;;;;;;3.67;3.67;;;;;;;;5052502;28;45933;-65
2022/10/14 08:33:54;;;;;;;;;4.00;4.00;;;;;;;;5036508;28;46680;-66
2022/10/14 08:36:20;;;;;;;;;4.33;4.33;;;;;;;;5056260;28;45466;-66
2022/10/14 08:38:46;;;;;;;;;4.00;2.00;;;;;;;;5046397;28;45485;-66
2022/10/14 08:41:11;;;;;;;;;3.67;2.33;;;;;;;;5053567;28;45484;-65
2022/10/14 08:43:49;;;;;;;;;3.00;3.00;;;;;;;;5039907;28;45549;-66
2022/10/14 08:46:25;;;;;;;;;3.00;3.00;;;;;;;;5035266;28;45567;-65
2022/10/14 08:48:54;;;;;;;;;4.00;3.00;;;;;;;;5045461;28;45764;-67
2022/10/14 08:51:20;;;;;;;;;5.00;3.00;;;;;;;;5053664;28;45449;-67
2022/10/14 08:53:49;;;;;;;;;3.00;3.00;;;;;;;;5045424;28;47048;-65
2022/10/14 08:56:16;;;;;;;;;2.00;2.00;;;;;;;;5040180;28;45490;-66
2022/10/14 08:58:42;;;;;;;;;2.00;2.00;;;;;;;;5046636;28;45788;-66
2022/10/14 09:01:28;;;;;;;;;3.00;3.00;;;;;;;;5051461;28;45915;-66
2022/10/14 09:04:04;;;;;;;;;4.67;2.33;;;;;;;;5047017;28;46243;-66
2022/10/14 09:06:31;;;;;;;;;2.33;2.33;;;;;;;;5035911;28;45462;-66
2022/10/14 09:09:05;;;;;;;;;2.33;2.00;;;;;;;;5046378;28;45420;-67
2022/10/14 09:11:35;;;;;;;;;2.00;2.00;;;;;;;;5053182;28;45477;-67
2022/10/14 09:14:01;;;;;;;;;3.67;3.00;;;;;;;;5048118;28;47674;-67
2022/10/14 09:16:29;;;;;;;;;3.00;2.00;;;;;;;;5045442;28;45565;-67
2022/10/14 09:18:59;;;;;;;;;2.00;2.00;;;;;;;;5051975;28;45454;-67
2022/10/14 09:21:24;;;;;;;;;2.00;2.00;;;;;;;;5050707;28;45429;-66
2022/10/14 09:23:57;;;;;;;;;2.00;2.00;;;;;;;;5042039;28;46387;-67
2022/10/14 09:26:24;;;;;;;;;4.00;4.00;;;;;;;;5052484;28;45411;-67
2022/10/14 09:28:53;;;;;;;;;2.33;2.00;;;;;;;;5053273;28;45312;-67
2022/10/14 09:31:18;;;;;;;;;2.33;2.33;;;;;;;;5053752;28;45436;-67
2022/10/14 09:33:43;;;;;;;;;4.00;3.00;;;;;;;;5044946;28;45520;-67
2022/10/14 09:36:16;;;;;;;;;4.33;3.00;;;;;;;;5037266;28;45601;-67
2022/10/14 09:38:41;;;;;;;;;3.33;3.00;;;;;;;;5048245;28;45539;-67
2022/10/14 09:41:08;;;;;;;;;3.00;3.00;;;;;;;;5049609;28;45343;-67
2022/10/14 09:43:33;;;;;;;;;3.00;3.00;;;;;;;;5052772;28;46189;-67
2022/10/14 09:45:58;;;;;;;;;3.00;3.00;;;;;;;;5047987;28;45665;-67
2022/10/14 09:48:33;;;;;;;;;3.33;3.00;;;;;;;;5056175;28;45638;-66
2022/10/14 09:51:02;;;;;;;;;3.00;3.00;;;;;;;;5051299;28;45976;-66
2022/10/14 09:53:33;;;;;;;;;3.00;2.33;;;;;;;;5054197;28;47372;-67
2022/10/14 09:56:02;;;;;;;;;31.00;29.67;;;;;;;;5056426;28;45358;-67
2022/10/14 09:58:32;;;;;;;;;6.00;3.00;;;;;;;;5049594;28;45448;-67
2022/10/14 10:00:59;;;;;;;;;4.00;4.00;;;;;;;;5045808;28;45818;-66
2022/10/14 10:03:25;;;;;;;;;3.00;3.00;;;;;;;;5044522;28;46164;-68
2022/10/14 10:06:05;;;;;;;;;2.67;2.00;;;;;;;;5048203;28;45450;-67
2022/10/14 10:08:30;;;;;;;;;2.00;2.00;;;;;;;;5049379;28;45789;-67
2022/10/14 10:11:07;;;;;;;;;3.00;3.00;;;;;;;;5052822;28;45437;-66
2022/10/14 10:13:34;;;;;;;;;3.67;3.67;;;;;;;;5047216;28;46203;-67
2022/10/14 10:16:00;;;;;;;;;4.00;3.00;;;;;;;;5049441;28;45409;-67
2022/10/14 10:18:26;;;;;;;;;4.67;2.00;;;;;;;;5043375;28;45446;-66
2022/10/14 10:21:14;;;;;;;;;5.67;3.00;;;;;;;;5042828;28;45402;-67
2022/10/14 10:23:48;;;;;;;;;1.67;1.33;;;;;;;;5060691;28;46470;-67
2022/10/14 10:26:24;;;;;;;;;3.00;3.00;;;;;;;;5056342;28;45455;-66
2022/10/14 10:28:50;;;;;;;;;3.00;1.67;;;;;;;;5060060;28;45427;-66
2022/10/14 10:31:18;;;;;;;;;3.00;3.00;;;;;;;;5053112;28;45240;-71
2022/10/14 10:33:53;;;;;;;;;2.00;2.00;;;;;;;;5057654;28;46252;-70
2022/10/14 10:36:27;;;;;;;;;2.67;2.67;;;;;;;;5043738;28;46629;-70
2022/10/14 10:39:00;;;;;;;;;11.00;8.67;;;;;;;;5046336;28;45844;-70
2022/10/14 10:41:47;;;;;;;;;8.33;8.00;;;;;;;;5046180;28;45485;-70
2022/10/14 10:44:24;;;;;;;;;19.67;19.33;;;;;;;;5049104;28;46430;-71
2022/10/14 10:46:50;;;;;;;;;10.33;9.00;;;;;;;;5040463;28;45439;-70
2022/10/14 10:49:42;;;;;;;;;17.00;17.00;;;;;;;;5057082;28;45426;-70
2022/10/14 10:52:33;;;;;;;;;5.33;5.33;;;;;;;;5007943;28;45969;-70
2022/10/14 10:55:13;;;;;;;;;4.00;3.00;;;;;;;;5049400;28;46057;-70
2022/10/14 10:57:48;;;;;;;;;0.67;0.67;;;;;;;;5061069;28;45385;-70
2022/10/14 11:00:19;;;;;;;;;6.00;5.33;;;;;;;;5048098;28;45577;-70
2022/10/14 11:02:53;;;;;;;;;2.33;2.33;;;;;;;;5046298;28;45786;-70
2022/10/14 11:05:22;;;;;;;;;3.00;2.00;;;;;;;;5056760;28;45528;-70
2022/10/14 11:13:47;;;;;;;;;6.00;4.67;;;;;;;;5056027;28;45429;-69
2022/10/14 11:16:30;;;;;;;;;12.00;10.00;;;;;;;;5044438;28;46138;-69
2022/10/14 11:19:02;;;;;;;;;2.00;0.25;;;;;;;;5045438;28;45398;-69
2022/10/14 11:21:30;;;;;;;;;0.00;0.00;;;;;;;;5053187;28;45465;-69
2022/10/14 11:24:01;;;;;;;;;0.25;0.00;;;;;;;;5050266;28;45596;-69
2022/10/14 11:26:40;;;;;;;;;1.00;1.00;;;;;;;;5051485;28;46297;-69
2022/10/14 11:29:25;;;;;;;;;1.50;1.50;;;;;;;;5051561;28;45494;-69
2022/10/14 11:31:57;;;;;;;;;2.33;2.33;;;;;;;;5052661;28;45423;-69
2022/10/14 11:34:27;;;;;;;;;1.75;1.75;;;;;;;;5056775;28;45420;-69
2022/10/14 11:36:54;;;;;;;;;0.00;0.00;;;;;;;;5044434;28;46381;-69
2022/10/14 11:39:19;;;;;;;;;1.25;1.00;;;;;;;;5033846;28;45969;-69
2022/10/14 11:41:52;;;;;;;;;1.00;1.00;;;;;;;;5047382;28;45468;-68
2022/10/14 11:44:23;;;;;;;;;0.00;0.00;;;;;;;;5047270;28;45354;-69
2022/10/14 11:46:52;;;;;;;;;8.67;7.00;;;;;;;;5058869;28;45359;-69
2022/10/14 11:49:21;;;;;;;;;6.00;4.67;;;;;;;;5049192;28;45451;-69
2022/10/14 11:51:50;;;;;;;;;3.33;3.33;;;;;;;;5046627;28;45593;-69
2022/10/14 11:54:21;;;;;;;;;2.00;2.00;;;;;;;;5048383;28;45489;-69
2022/10/14 11:56:50;;;;;;;;;1.00;1.00;;;;;;;;5047175;28;45449;-69
2022/10/14 11:59:24;;;;;;;;;6.67;5.67;;;;;;;;5042728;28;45560;-69
2022/10/14 12:01:52;;;;;;;;;4.00;4.00;;;;;;;;5049518;28;45359;-69
2022/10/14 12:04:29;;;;;;;;;4.33;4.33;;;;;;;;5045391;28;45473;-70
2022/10/14 12:07:04;;;;;;;;;6.00;4.67;;;;;;;;5053397;28;46200;-70
2022/10/14 12:09:37;;;;;;;;;2.00;2.00;;;;;;;;5053015;28;45615;-70
2022/10/14 12:12:05;;;;;;;;;2.33;2.33;;;;;;;;5049986;28;45522;-70
2022/10/14 12:14:35;;;;;;;;;1.00;1.00;;;;;;;;5042209;28;45457;-70
2022/10/14 12:17:03;;;;;;;;;2.00;2.00;;;;;;;;5048872;28;45370;-70
2022/10/14 12:19:29;;;;;;;;;1.00;1.00;;;;;;;;5053974;28;45509;-70
2022/10/14 12:22:04;;;;;;;;;0.33;0.33;;;;;;;;5046714;28;45514;-69
2022/10/14 12:24:35;;;;;;;;;2.00;2.00;;;;;;;;5058605;28;45445;-70
2022/10/14 12:27:03;;;;;;;;;1.00;1.00;;;;;;;;5042510;28;45429;-69
2022/10/14 12:29:34;;;;;;;;;1.25;1.00;;;;;;;;5047640;28;45559;-70
2022/10/14 12:32:01;;;;;;;;;0.50;0.00;;;;;;;;5057440;28;45442;-69
2022/10/14 12:34:30;;;;;;;;;1.00;1.00;;;;;;;;5054465;28;45387;-69
2022/10/14 12:36:55;;;;;;;;;1.00;1.00;;;;;;;;5052613;28;46468;-69
2022/10/14 12:39:21;;;;;;;;;0.50;0.50;;;;;;;;5046544;28;45561;-70
2022/10/14 12:42:05;;;;;;;;;1.00;1.00;;;;;;;;5049154;28;45686;-69
2022/10/14 12:44:33;;;;;;;;;1.75;1.50;;;;;;;;5050235;28;45636;-68
2022/10/14 12:46:58;;;;;;;;;2.00;1.00;;;;;;;;5050746;28;46106;-68
2022/10/14 12:49:29;;;;;;;;;3.00;1.00;;;;;;;;5046275;28;45414;-68
2022/10/14 12:52:00;;;;;;;;;1.33;1.33;;;;;;;;5044889;28;45466;-68
2022/10/14 12:54:25;;;;;;;;;2.00;2.00;;;;;;;;5042595;28;45359;-68
2022/10/14 12:56:56;;;;;;;;;2.00;2.00;;;;;;;;5047904;28;46169;-68
2022/10/14 12:59:36;;;;;;;;;2.00;2.00;;;;;;;;5043399;28;45958;-68
2022/10/14 13:02:04;;;;;;;;;4.33;3.00;;;;;;;;5027984;28;45533;-68
2022/10/14 13:04:30;;;;;;;;;3.00;3.00;;;;;;;;5047652;28;45498;-68
2022/10/14 13:07:14;;;;;;;;;3.00;3.00;;;;;;;;5044818;28;45503;-68
2022/10/14 13:09:39;;;;;;;;;3.33;3.33;;;;;;;;5047235;28;45692;-68
2022/10/14 13:12:07;;;;;;;;;4.00;4.00;;;;;;;;5053656;28;45743;-68
2022/10/14 13:14:52;;;;;;;;;4.00;3.00;;;;;;;;5051791;28;45452;-68
2022/10/14 13:17:36;;;;;;;;;3.67;3.67;;;;;;;;5031481;28;46097;-68
2022/10/14 13:20:03;;;;;;;;;3.33;3.00;;;;;;;;5050984;28;45359;-68
2022/10/14 13:22:28;;;;;;;;;4.33;4.00;;;;;;;;5027639;28;45505;-68
2022/10/14 13:25:14;;;;;;;;;2.00;2.00;;;;;;;;5045753;28;45592;-68
2022/10/14 13:27:42;;;;;;;;;4.00;4.00;;;;;;;;5056534;28;46210;-68
2022/10/14 13:30:15;;;;;;;;;4.00;3.00;;;;;;;;5050966;28;45490;-68
2022/10/14 13:32:43;;;;;;;;;4.00;4.00;;;;;;;;5034769;28;45313;-68
2022/10/14 13:35:29;;;;;;;;;6.00;6.00;;;;;;;;5054703;28;45538;-68
2022/10/14 13:37:54;;;;;;;;;4.67;4.67;;;;;;;;5032836;28;45826;-68
2022/10/14 13:40:20;;;;;;;;;9.00;6.00;;;;;;;;5056080;28;45414;-68
2022/10/14 13:42:49;;;;;;;;;4.33;4.33;;;;;;;;5053592;28;45501;-69
2022/10/14 13:45:15;;;;;;;;;3.67;3.67;;;;;;;;5042568;28;45597;-68
2022/10/14 13:47:42;;;;;;;;;4.67;4.67;;;;;;;;5048220;28;45416;-68
2022/10/14 13:50:10;;;;;;;;;6.00;5.00;;;;;;;;5045983;28;45549;-68
2022/10/14 13:52:35;;;;;;;;;3.00;3.00;;;;;;;;5045922;28;45483;-68
2022/10/14 13:55:10;;;;;;;;;3.00;3.00;;;;;;;;5048421;28;45547;-71
2022/10/14 13:57:35;;;;;;;;;3.33;3.33;;;;;;;;5049072;28;45822;-70
2022/10/14 14:00:00;;;;;;;;;5.00;4.00;;;;;;;;5040694;28;45500;-71
2022/10/14 14:02:28;;;;;;;;;5.00;5.00;;;;;;;;5049835;28;45525;-71
2022/10/14 14:04:56;;;;;;;;;5.00;5.00;;;;;;;;5053606;28;45550;-70
2022/10/14 14:07:23;;;;;;;;;8.67;6.33;;;;;;;;5040974;28;45394;-70
2022/10/14 14:09:50;;;;;;;;;4.00;3.33;;;;;;;;5048490;28;45529;-70
2022/10/14 14:12:16;;;;;;;;;7.33;6.33;;;;;;;;5054879;28;45474;-70
2022/10/14 14:14:42;;;;;;;;;5.33;5.00;;;;;;;;5029585;28;45407;-70
2022/10/14 14:17:18;;;;;;;;;6.00;5.00;;;;;;;;5046751;28;46154;-71
2022/10/14 14:19:45;;;;;;;;;4.33;4.33;;;;;;;;5037553;28;46146;-70
2022/10/14 14:22:16;;;;;;;;;6.00;5.67;;;;;;;;5052821;28;45622;-71
2022/10/14 14:24:41;;;;;;;;;6.00;6.00;;;;;;;;5053119;28;45720;-71
2022/10/14 14:27:23;;;;;;;;;5.00;5.00;;;;;;;;5052954;28;46869;-71
2022/10/14 14:29:49;;;;;;;;;5.00;4.00;;;;;;;;5043417;28;45855;-71
2022/10/14 14:32:16;;;;;;;;;5.00;5.00;;;;;;;;5045419;28;45541;-69
2022/10/14 14:34:43;;;;;;;;;4.00;4.00;;;;;;;;5047910;28;45513;-69
2022/10/14 14:37:23;;;;;;;;;5.00;5.00;;;;;;;;5053961;28;46274;-69
2022/10/14 14:40:03;;;;;;;;;5.00;5.00;;;;;;;;5053392;28;45517;-70
2022/10/14 14:42:34;;;;;;;;;5.00;5.00;;;;;;;;5047998;28;45296;-70
2022/10/14 14:45:03;;;;;;;;;4.00;4.00;;;;;;;;5050060;28;45472;-71
2022/10/14 14:47:30;;;;;;;;;4.00;3.00;;;;;;;;5042775;28;46492;-70
2022/10/14 14:49:56;;;;;;;;;4.00;4.00;;;;;;;;5047516;28;45523;-70
2022/10/14 14:52:22;;;;;;;;;5.00;4.00;;;;;;;;5034521;28;45378;-72
2022/10/14 14:54:47;;;;;;;;;5.00;5.00;;;;;;;;5050407;28;45650;-70
2022/10/14 14:57:14;;;;;;;;;7.00;6.00;;;;;;;;5049586;28;46820;-70
2022/10/14 14:59:42;;;;;;;;;8.33;8.33;;;;;;;;5047816;28;45450;-70
2022/10/14 15:02:21;;;;;;;;;4.67;4.67;;;;;;;;5044893;28;45441;-71
2022/10/14 15:04:47;;;;;;;;;4.67;4.67;;;;;;;;5048306;28;45407;-70
2022/10/14 15:07:12;;;;;;;;;6.00;5.00;;;;;;;;5053345;28;46980;-70
2022/10/14 15:09:37;;;;;;;;;5.67;5.67;;;;;;;;5048562;28;45454;-70
2022/10/14 15:12:05;;;;;;;;;5.00;5.00;;;;;;;;5057408;28;45723;-70
2022/10/14 15:14:44;;;;;;;;;6.00;6.00;;;;;;;;5043596;28;45454;-70
2022/10/14 15:17:28;;;;;;;;;8.00;6.33;;;;;;;;5051134;28;46467;-70
2022/10/14 15:19:54;;;;;;;;;9.67;6.33;;;;;;;;5046491;28;45839;-70
2022/10/14 15:22:21;;;;;;;;;6.33;6.33;;;;;;;;5051867;28;45227;-70
2022/10/14 15:24:56;;;;;;;;;6.33;6.33;;;;;;;;5056244;28;45466;-70
2022/10/14 15:27:39;;;;;;;;;8.33;7.00;;;;;;;;5056588;28;45862;-71
2022/10/14 15:30:16;;;;;;;;;11.33;7.00;;;;;;;;5046046;28;45844;-67
2022/10/14 15:32:41;;;;;;;;;7.00;7.00;;;;;;;;5054536;28;45579;-70
2022/10/14 15:35:10;;;;;;;;;7.33;6.67;;;;;;;;5048554;28;45553;-69
2022/10/14 15:37:35;;;;;;;;;14.33;8.67;;;;;;;;5054891;28;46129;-61
2022/10/14 15:40:09;;;;;;;;;9.67;8.00;;;;;;;;5042770;28;45416;-71
2022/10/14 15:42:34;;;;;;;;;5.00;5.00;;;;;;;;5050425;28;45839;-72
2022/10/14 15:44:59;;;;;;;;;10.00;9.00;;;;;;;;5054425;28;45521;-70
2022/10/14 15:47:25;;;;;;;;;9.00;9.00;;;;;;;;5052467;28;46049;-71
2022/10/14 15:49:50;;;;;;;;;19.00;18.00;;;;;;;;5046837;28;45472;-71
2022/10/14 15:52:16;;;;;;;;;12.00;11.33;;;;;;;;5049386;28;45607;-71
2022/10/14 15:54:42;;;;;;;;;11.67;11.67;;;;;;;;5053426;28;45538;-71
2022/10/14 15:57:08;;;;;;;;;8.00;8.00;;;;;;;;5057383;28;46251;-72
2022/10/14 15:59:33;;;;;;;;;11.33;9.33;;;;;;;;5053149;28;45342;-71
2022/10/14 16:01:58;;;;;;;;;9.67;9.67;;;;;;;;5046534;28;45782;-71
2022/10/14 16:04:26;;;;;;;;;10.00;10.00;;;;;;;;5052751;28;45348;-71
2022/10/14 16:06:53;;;;;;;;;11.00;11.00;;;;;;;;5049996;28;46304;-71
2022/10/14 16:09:18;;;;;;;;;10.33;10.33;;;;;;;;5052824;28;45458;-71
2022/10/14 16:11:43;;;;;;;;;10.33;10.33;;;;;;;;5057572;28;45590;-72
2022/10/14 16:14:11;;;;;;;;;12.67;12.67;;;;;;;;5056637;28;45517;-72
2022/10/14 16:16:39;;;;;;;;;13.33;13.00;;;;;;;;5049663;28;46250;-72
2022/10/14 16:19:04;;;;;;;;;15.33;15.00;;;;;;;;5046746;28;45430;-71
2022/10/14 16:21:29;;;;;;;;;12.00;12.00;;;;;;;;5051156;28;45331;-72
2022/10/14 16:23:55;;;;;;;;;12.00;11.00;;;;;;;;5052237;28;45614;-72
2022/10/14 16:26:20;;;;;;;;;12.33;11.00;;;;;;;;5052793;28;45404;-72
2022/10/14 16:28:46;;;;;;;;;15.67;15.33;;;;;;;;5052883;28;45601;-72
2022/10/14 16:31:13;;;;;;;;;14.00;13.00;;;;;;;;5047859;28;45459;-72
2022/10/14 16:33:38;;;;;;;;;12.33;12.33;;;;;;;;5050388;28;45765;-71
2022/10/14 16:36:05;;;;;;;;;15.67;15.67;;;;;;;;5048254;28;46307;-72
2022/10/14 16:38:32;;;;;;;;;13.67;13.67;;;;;;;;5050865;28;45402;-72
2022/10/14 16:40:58;;;;;;;;;16.67;15.67;;;;;;;;5053311;28;45473;-72
2022/10/14 16:43:24;;;;;;;;;19.33;19.00;;;;;;;;5045670;28;45462;-70
2022/10/14 16:45:49;;;;;;;;;19.00;17.33;;;;;;;;5057185;28;46751;-71
2022/10/14 16:48:17;;;;;;;;;19.00;18.33;;;;;;;;5056835;28;45437;-70
2022/10/14 16:50:42;;;;;;;;;16.00;14.67;;;;;;;;5053448;28;45467;-71
2022/10/14 16:55:54;;;;;;;;;24.00;19.00;;;;;;;;5056226;28;46000;-71
2022/10/14 16:58:20;;;;;;;;;12.33;12.33;;;;;;;;5057129;28;45658;-71
2022/10/14 17:00:45;;;;;;;;;12.33;12.33;;;;;;;;5051535;28;45349;-71
2022/10/14 17:03:10;;;;;;;;;13.33;13.00;;;;;;;;5056161;28;45493;-72
2022/10/14 17:05:36;;;;;;;;;12.67;12.67;;;;;;;;5057595;28;46283;-72
2022/10/14 17:08:01;;;;;;;;;13.00;11.33;;;;;;;;5053665;28;45487;-71
2022/10/14 17:10:26;;;;;;;;;20.67;12.67;;;;;;;;5045481;28;45521;-69
2022/10/14 17:12:53;;;;;;;;;20.00;19.33;;;;;;;;5052319;28;45542;-74
2022/10/14 17:15:18;;;;;;;;;25.67;24.33;;;;;;;;5041842;28;46243;-74
2022/10/14 17:17:43;;;;;;;;;34.00;31.67;;;;;;;;5042867;28;45668;-73
2022/10/14 17:20:09;;;;;;;;;26.33;23.33;;;;;;;;5041817;28;45407;-73
2022/10/14 17:22:34;;;;;;;;;25.33;22.67;;;;;;;;5041850;28;45286;-74
2022/10/14 17:24:59;;;;;;;;;37.33;28.33;;;;;;;;5052141;28;46225;-74
2022/10/14 17:27:25;;;;;;;;;28.67;28.33;;;;;;;;5052141;28;45332;-73
2022/10/14 17:29:50;;;;;;;;;34.00;31.00;;;;;;;;5057412;28;45357;-73
2022/10/14 17:32:16;;;;;;;;;27.00;24.67;;;;;;;;5046536;28;45448;-73
2022/10/14 17:34:41;;;;;;;;;33.00;25.00;;;;;;;;5050823;28;47048;-74
2022/10/14 17:37:06;;;;;;;;;26.67;23.33;;;;;;;;5056363;28;45367;-74
2022/10/14 17:39:32;;;;;;;;;24.33;21.00;;;;;;;;5057177;28;45438;-74
2022/10/14 17:41:57;;;;;;;;;24.33;24.00;;;;;;;;5051755;28;45674;-73
2022/10/14 17:44:23;;;;;;;;;27.00;23.00;;;;;;;;5045985;28;45989;-73
2022/10/14 17:46:48;;;;;;;;;23.33;23.33;;;;;;;;5055881;28;45481;-75
2022/10/14 17:49:14;;;;;;;;;16.67;16.67;;;;;;;;5049262;28;45450;-74
2022/10/14 17:51:39;;;;;;;;;21.67;19.00;;;;;;;;5052043;28;45378;-74
2022/10/14 17:54:06;;;;;;;;;16.67;16.67;;;;;;;;5050430;28;46178;-73
2022/10/14 17:56:33;;;;;;;;;12.33;11.67;;;;;;;;5054249;28;45849;-75
2022/10/14 17:58:59;;;;;;;;;11.33;11.33;;;;;;;;5052179;28;45894;-73
2022/10/14 18:01:26;;;;;;;;;10.33;10.33;;;;;;;;5047011;28;45657;-72
2022/10/14 18:03:52;;;;;;;;;10.00;10.00;;;;;;;;5050111;28;45501;-74
2022/10/14 18:06:17;;;;;;;;;10.67;9.33;;;;;;;;5045312;28;46395;-72
2022/10/14 18:08:44;;;;;;;;;8.67;8.67;;;;;;;;5046128;28;45766;-72
2022/10/14 18:11:09;;;;;;;;;9.00;9.00;;;;;;;;5050228;28;45439;-73
2022/10/14 18:13:35;;;;;;;;;6.00;6.00;;;;;;;;5043810;28;45887;-72
2022/10/14 18:16:05;;;;;;;;;6.00;6.00;;;;;;;;5047592;28;45376;-73
2022/10/14 18:18:30;;;;;;;;;6.33;6.33;;;;;;;;5042672;28;45402;-73
2022/10/14 18:20:56;;;;;;;;;7.00;7.00;;;;;;;;5044918;28;45381;-72
2022/10/14 18:23:21;;;;;;;;;9.00;7.67;;;;;;;;5048682;28;45964;-73
2022/10/14 18:25:46;;;;;;;;;8.00;7.00;;;;;;;;5048561;28;45473;-73
2022/10/14 18:28:11;;;;;;;;;7.67;7.00;;;;;;;;5045436;28;45408;-73
2022/10/14 18:30:37;;;;;;;;;6.67;6.67;;;;;;;;5046045;28;45276;-73
2022/10/14 18:33:02;;;;;;;;;5.33;5.00;;;;;;;;5042617;28;45725;-73
2022/10/14 18:35:27;;;;;;;;;5.00;5.00;;;;;;;;5043232;28;45602;-74
2022/10/14 18:37:52;;;;;;;;;6.00;4.67;;;;;;;;5047627;28;46229;-73
2022/10/14 18:40:20;;;;;;;;;4.00;4.00;;;;;;;;5046979;28;45876;-72
2022/10/14 18:42:45;;;;;;;;;3.67;3.67;;;;;;;;5047353;28;46098;-71
2022/10/14 18:45:10;;;;;;;;;3.33;3.33;;;;;;;;5052859;28;45627;-72
2022/10/14 18:47:35;;;;;;;;;4.00;4.00;;;;;;;;5056459;28;45535;-72
2022/10/14 18:50:00;;;;;;;;;6.33;5.00;;;;;;;;5047370;28;45392;-72
2022/10/14 18:52:26;;;;;;;;;4.00;4.00;;;;;;;;5040950;28;45469;-73
2022/10/14 18:54:51;;;;;;;;;5.67;4.00;;;;;;;;5052853;28;45508;-72
2022/10/14 18:57:17;;;;;;;;;4.00;2.33;;;;;;;;5052220;28;45388;-72
2022/10/14 18:59:42;;;;;;;;;3.67;3.00;;;;;;;;5047046;28;45724;-72
2022/10/14 19:02:10;;;;;;;;;3.00;3.00;;;;;;;;5056337;28;45458;-72
2022/10/14 19:04:36;;;;;;;;;2.00;2.00;;;;;;;;5058939;28;45433;-72
2022/10/14 19:07:01;;;;;;;;;4.67;3.00;;;;;;;;5043687;28;45465;-72
2022/10/14 19:09:28;;;;;;;;;3.00;3.00;;;;;;;;5052406;28;45447;-72
2022/10/14 19:11:53;;;;;;;;;5.00;5.00;;;;;;;;5048731;28;47225;-72
2022/10/14 19:14:21;;;;;;;;;4.00;4.00;;;;;;;;5047751;28;45567;-73
2022/10/14 19:16:48;;;;;;;;;3.33;3.33;;;;;;;;5046062;28;45684;-73
2022/10/14 19:19:15;;;;;;;;;6.67;5.67;;;;;;;;5055949;28;45501;-73
2022/10/14 19:21:42;;;;;;;;;6.33;5.67;;;;;;;;5051806;28;46392;-73